createdAt,value
2018-08-17T00:00:09.388Z,28.70
2018-08-17T00:01:09.352Z,28.50
2018-08-17T00:02:09.340Z,27.40
2018-08-17T00:03:09.325Z,31.00
2018-08-17T00:04:09.313Z,28.80
2018-08-17T00:05:09.382Z,28.40
2018-08-17T00:06:09.298Z,28.70
2018-08-17T00:07:09.289Z,30.50
2018-08-17T00:08:09.270Z,30.40
2018-08-17T00:09:09.295Z,29.40
2018-08-17T00:10:09.286Z,29.30
2018-08-17T00:11:09.250Z,27.20
2018-08-17T00:12:09.250Z,28.60
2018-08-17T00:13:09.275Z,28.00
2018-08-17T00:14:09.246Z,28.10
2018-08-17T00:15:09.351Z,28.80
2018-08-17T00:16:09.185Z,27.20
2018-08-17T00:17:09.246Z,27.80
2018-08-17T00:18:09.169Z,30.00
2018-08-17T00:19:09.161Z,29.30
2018-08-17T00:20:09.161Z,28.70
2018-08-17T00:21:09.166Z,28.30
2018-08-17T00:22:09.177Z,29.70
2018-08-17T00:23:09.109Z,30.60
2018-08-17T00:24:09.104Z,29.50
2018-08-17T00:25:09.097Z,29.70
2018-08-17T00:26:09.078Z,32.50
2018-08-17T00:27:09.095Z,31.30
2018-08-17T00:28:09.073Z,30.30
2018-08-17T00:29:09.054Z,28.40
2018-08-17T00:30:09.040Z,30.20
2018-08-17T00:31:09.107Z,29.10
2018-08-17T00:32:09.042Z,30.60
2018-08-17T00:33:09.099Z,28.70
2018-08-17T00:34:09.059Z,27.40
2018-08-17T00:35:09.024Z,28.70
2018-08-17T00:36:08.973Z,29.00
2018-08-17T00:37:08.957Z,27.80
2018-08-17T00:38:08.952Z,30.30
2018-08-17T00:39:08.969Z,29.20
2018-08-17T00:40:08.944Z,28.90
2018-08-17T00:41:08.920Z,27.10
2018-08-17T00:42:08.908Z,28.80
2018-08-17T00:43:08.957Z,28.10
2018-08-17T00:44:08.895Z,26.20
2018-08-17T00:45:08.916Z,25.50
2018-08-17T00:46:08.864Z,25.40
2018-08-17T00:47:08.848Z,24.40
2018-08-17T00:48:08.902Z,25.60
2018-08-17T00:49:08.830Z,24.80
2018-08-17T00:50:08.819Z,22.90
2018-08-17T00:51:08.904Z,24.60
2018-08-17T00:52:08.857Z,24.70
2018-08-17T00:53:08.789Z,24.20
2018-08-17T00:54:08.801Z,25.10
2018-08-17T00:55:08.758Z,27.30
2018-08-17T00:56:08.780Z,26.50
2018-08-17T00:57:08.748Z,27.00
2018-08-17T00:58:08.731Z,25.70
2018-08-17T00:59:08.761Z,23.40
2018-08-17T01:00:08.708Z,21.00
2018-08-17T01:01:08.725Z,21.10
2018-08-17T01:02:08.714Z,22.50
2018-08-17T01:03:08.677Z,23.70
2018-08-17T01:04:08.684Z,23.80
2018-08-17T01:05:08.654Z,23.30
2018-08-17T01:06:08.645Z,24.80
2018-08-17T01:07:08.630Z,23.80
2018-08-17T01:08:08.692Z,22.00
2018-08-17T01:09:08.607Z,22.60
2018-08-17T01:10:08.599Z,23.10
2018-08-17T01:11:08.653Z,24.00
2018-08-17T01:12:08.598Z,22.70
2018-08-17T01:13:08.564Z,22.50
2018-08-17T01:14:08.618Z,21.40
2018-08-17T01:15:08.551Z,20.70
2018-08-17T01:16:08.538Z,22.30
2018-08-17T01:17:08.523Z,23.30
2018-08-17T01:18:08.508Z,23.80
2018-08-17T01:19:08.495Z,22.80
2018-08-17T01:20:08.511Z,21.90
2018-08-17T01:21:08.475Z,21.00
2018-08-17T01:22:08.525Z,23.50
2018-08-17T01:23:08.476Z,23.40
2018-08-17T01:24:08.453Z,21.90
2018-08-17T01:25:08.453Z,21.50
2018-08-17T01:26:08.515Z,22.50
2018-08-17T01:27:08.406Z,21.30
2018-08-17T01:28:08.506Z,20.90
2018-08-17T01:29:08.389Z,22.10
2018-08-17T01:30:08.448Z,22.30
2018-08-17T01:31:08.429Z,23.00
2018-08-17T01:32:08.417Z,22.20
2018-08-17T01:33:08.376Z,23.00
2018-08-17T01:34:08.334Z,21.40
2018-08-17T01:35:08.326Z,21.40
2018-08-17T01:36:08.313Z,23.70
2018-08-17T01:37:08.332Z,22.50
2018-08-17T01:38:08.286Z,22.90
2018-08-17T01:39:08.346Z,22.50
2018-08-17T01:40:08.266Z,22.60
2018-08-17T01:41:08.332Z,22.30
2018-08-17T01:42:08.249Z,20.80
2018-08-17T01:43:08.255Z,22.10
2018-08-17T01:44:08.243Z,23.40
2018-08-17T01:45:08.210Z,23.60
2018-08-17T01:46:08.257Z,22.10
2018-08-17T01:47:08.192Z,20.60
2018-08-17T01:48:08.180Z,20.30
2018-08-17T01:49:08.191Z,19.30
2018-08-17T01:50:08.211Z,20.10
2018-08-17T01:51:08.145Z,20.40
2018-08-17T01:52:08.136Z,19.90
2018-08-17T01:53:08.273Z,19.50
2018-08-17T01:54:08.156Z,20.70
2018-08-17T01:55:08.113Z,20.50
2018-08-17T01:56:08.107Z,20.50
2018-08-17T01:57:08.084Z,19.50
2018-08-17T01:58:08.087Z,21.10
2018-08-17T01:59:08.106Z,20.50
2018-08-17T02:00:08.071Z,19.50
2018-08-17T02:01:08.040Z,19.70
2018-08-17T02:02:08.022Z,19.00
2018-08-17T02:03:08.016Z,19.70
2018-08-17T02:04:08.022Z,19.70
2018-08-17T02:05:07.989Z,18.50
2018-08-17T02:06:07.994Z,18.80
2018-08-17T02:07:08.014Z,19.50
2018-08-17T02:08:07.963Z,20.00
2018-08-17T02:09:07.972Z,19.40
2018-08-17T02:10:07.935Z,19.50
2018-08-17T02:11:07.926Z,18.60
2018-08-17T02:12:07.930Z,20.20
2018-08-17T02:13:07.915Z,19.20
2018-08-17T02:14:07.923Z,18.40
2018-08-17T02:15:07.912Z,18.90
2018-08-17T02:16:07.873Z,18.60
2018-08-17T02:17:07.904Z,18.50
2018-08-17T02:18:07.856Z,19.10
2018-08-17T02:19:08.144Z,21.00
2018-08-17T02:20:07.857Z,20.40
2018-08-17T02:21:07.823Z,19.10
2018-08-17T02:22:07.805Z,19.70
2018-08-17T02:23:07.797Z,19.70
2018-08-17T02:24:07.828Z,19.60
2018-08-17T02:25:07.787Z,18.60
2018-08-17T02:26:07.769Z,19.10
2018-08-17T02:27:07.819Z,18.30
2018-08-17T02:28:07.763Z,20.10
2018-08-17T02:29:07.810Z,18.70
2018-08-17T02:30:07.719Z,17.80
2018-08-17T02:31:07.816Z,18.40
2018-08-17T02:32:07.719Z,19.00
2018-08-17T02:33:07.801Z,20.40
2018-08-17T02:34:07.730Z,20.10
2018-08-17T02:35:07.751Z,19.50
2018-08-17T02:36:07.705Z,19.90
2018-08-17T02:37:07.645Z,19.60
2018-08-17T02:38:07.638Z,19.10
2018-08-17T02:39:07.644Z,20.80
2018-08-17T02:40:07.616Z,19.40
2018-08-17T02:41:07.654Z,21.50
2018-08-17T02:42:07.615Z,20.70
2018-08-17T02:43:07.584Z,19.00
2018-08-17T02:44:07.639Z,20.40
2018-08-17T02:45:07.556Z,22.40
2018-08-17T02:46:07.568Z,20.00
2018-08-17T02:47:07.538Z,19.70
2018-08-17T02:48:07.561Z,19.30
2018-08-17T02:49:07.572Z,18.50
2018-08-17T02:50:07.518Z,19.30
2018-08-17T02:51:07.550Z,19.20
2018-08-17T02:52:07.505Z,19.30
2018-08-17T02:53:07.660Z,19.70
2018-08-17T02:54:07.505Z,20.90
2018-08-17T02:55:07.451Z,20.00
2018-08-17T02:56:07.441Z,19.70
2018-08-17T02:57:07.424Z,19.20
2018-08-17T02:58:07.432Z,20.40
2018-08-17T02:59:07.431Z,19.90
2018-08-17T03:00:07.402Z,20.40
2018-08-17T03:01:07.391Z,21.90
2018-08-17T03:02:07.432Z,22.80
2018-08-17T03:03:07.364Z,23.90
2018-08-17T03:04:07.392Z,23.60
2018-08-17T03:05:07.409Z,24.80
2018-08-17T03:06:07.419Z,22.90
2018-08-17T03:07:07.319Z,24.10
2018-08-17T03:08:07.308Z,24.60
2018-08-17T03:09:07.321Z,25.00
2018-08-17T03:10:07.322Z,25.40
2018-08-17T03:11:07.278Z,27.20
2018-08-17T03:12:07.358Z,26.00
2018-08-17T03:13:07.260Z,26.70
2018-08-17T03:14:07.313Z,27.40
2018-08-17T03:15:07.233Z,27.00
2018-08-17T03:16:07.226Z,26.50
2018-08-17T03:17:07.208Z,26.70
2018-08-17T03:18:07.215Z,28.40
2018-08-17T03:19:07.222Z,27.70
2018-08-17T03:20:07.198Z,27.50
2018-08-17T03:21:07.174Z,27.60
2018-08-17T03:22:07.202Z,27.60
2018-08-17T03:23:07.148Z,27.00
2018-08-17T03:24:07.221Z,28.20
2018-08-17T03:25:07.135Z,27.90
2018-08-17T03:26:07.110Z,28.00
2018-08-17T03:27:07.101Z,27.60
2018-08-17T03:28:07.123Z,27.70
2018-08-17T03:29:07.103Z,27.90
2018-08-17T03:30:07.136Z,28.00
2018-08-17T03:31:07.062Z,27.50
2018-08-17T03:32:07.054Z,29.20
2018-08-17T03:33:07.041Z,28.00
2018-08-17T03:34:07.047Z,27.70
2018-08-17T03:35:07.014Z,27.90
2018-08-17T03:36:07.006Z,28.70
2018-08-17T03:37:07.008Z,27.30
2018-08-17T03:38:07.079Z,28.90
2018-08-17T03:39:06.991Z,28.20
2018-08-17T03:40:07.039Z,28.90
2018-08-17T03:41:06.972Z,28.60
2018-08-17T03:42:06.948Z,28.20
2018-08-17T03:43:06.966Z,28.00
2018-08-17T03:44:06.957Z,28.70
2018-08-17T03:45:06.910Z,27.70
2018-08-17T03:46:06.900Z,29.00
2018-08-17T03:47:06.917Z,28.00
2018-08-17T03:48:06.872Z,28.70
2018-08-17T03:49:06.887Z,27.50
2018-08-17T03:50:06.867Z,28.60
2018-08-17T03:51:06.886Z,27.40
2018-08-17T03:52:06.842Z,27.40
2018-08-17T03:53:06.941Z,28.80
2018-08-17T03:54:06.844Z,27.40
2018-08-17T03:55:06.830Z,27.30
2018-08-17T03:56:06.791Z,26.90
2018-08-17T03:57:06.837Z,27.20
2018-08-17T03:58:06.851Z,26.60
2018-08-17T03:59:06.794Z,26.90
2018-08-17T04:00:06.757Z,26.50
2018-08-17T04:01:06.821Z,27.00
2018-08-17T04:02:06.747Z,26.70
2018-08-17T04:03:06.787Z,26.00
2018-08-17T04:04:06.720Z,26.70
2018-08-17T04:05:06.692Z,26.50
2018-08-17T04:06:06.688Z,26.90
2018-08-17T04:07:06.727Z,26.60
2018-08-17T04:08:06.739Z,27.20
2018-08-17T04:09:06.747Z,26.00
2018-08-17T04:10:06.657Z,26.30
2018-08-17T04:11:06.660Z,25.70
2018-08-17T04:12:06.672Z,26.60
2018-08-17T04:13:06.642Z,26.40
2018-08-17T04:14:06.654Z,26.10
2018-08-17T04:15:06.693Z,25.80
2018-08-17T04:16:06.626Z,25.00
2018-08-17T04:17:06.623Z,25.90
2018-08-17T04:18:06.562Z,25.70
2018-08-17T04:19:06.573Z,25.70
2018-08-17T04:20:06.532Z,25.80
2018-08-17T04:21:06.535Z,26.40
2018-08-17T04:22:06.608Z,26.30
2018-08-17T04:23:06.492Z,26.60
2018-08-17T04:24:06.518Z,26.20
2018-08-17T04:25:06.473Z,24.50
2018-08-17T04:26:06.466Z,24.90
2018-08-17T04:27:06.478Z,25.40
2018-08-17T04:28:06.451Z,24.50
2018-08-17T04:29:06.455Z,25.20
2018-08-17T04:30:06.495Z,26.80
2018-08-17T04:31:06.413Z,24.30
2018-08-17T04:32:06.410Z,26.80
2018-08-17T04:33:06.385Z,26.10
2018-08-17T04:34:06.423Z,23.50
2018-08-17T04:35:06.385Z,25.50
2018-08-17T04:36:06.360Z,26.50
2018-08-17T04:37:06.358Z,25.20
2018-08-17T04:38:06.328Z,24.20
2018-08-17T04:39:06.366Z,26.50
2018-08-17T04:40:06.310Z,25.10
2018-08-17T04:41:06.301Z,25.80
2018-08-17T04:42:06.292Z,26.00
2018-08-17T04:43:06.336Z,24.70
2018-08-17T04:44:06.288Z,24.60
2018-08-17T04:45:06.247Z,25.90
2018-08-17T04:46:06.243Z,26.00
2018-08-17T04:47:06.235Z,25.30
2018-08-17T04:48:06.237Z,25.50
2018-08-17T04:49:06.255Z,25.60
2018-08-17T04:50:06.194Z,26.30
2018-08-17T04:51:06.194Z,24.50
2018-08-17T04:52:06.177Z,26.10
2018-08-17T04:53:06.186Z,25.40
2018-08-17T04:54:06.186Z,25.50
2018-08-17T04:55:06.188Z,24.60
2018-08-17T04:56:06.132Z,22.70
2018-08-17T04:57:06.124Z,23.30
2018-08-17T04:58:06.129Z,23.70
2018-08-17T04:59:06.119Z,21.60
2018-08-17T05:00:06.101Z,22.60
2018-08-17T05:01:06.134Z,22.70
2018-08-17T05:02:06.067Z,21.20
2018-08-17T05:03:06.056Z,21.40
2018-08-17T05:04:06.067Z,22.30
2018-08-17T05:05:06.034Z,22.50
2018-08-17T05:06:06.022Z,21.90
2018-08-17T05:07:06.008Z,21.60
2018-08-17T05:08:05.998Z,20.70
2018-08-17T05:09:06.192Z,21.60
2018-08-17T05:10:05.988Z,21.40
2018-08-17T05:11:05.970Z,22.60
2018-08-17T05:12:05.985Z,22.50
2018-08-17T05:13:05.947Z,21.40
2018-08-17T05:14:05.957Z,20.10
2018-08-17T05:15:05.921Z,18.80
2018-08-17T05:16:05.929Z,19.50
2018-08-17T05:17:05.909Z,18.30
2018-08-17T05:18:06.030Z,18.60
2018-08-17T05:19:05.922Z,18.10
2018-08-17T05:20:05.877Z,16.70
2018-08-17T05:21:05.884Z,17.70
2018-08-17T05:22:05.868Z,17.20
2018-08-17T05:23:05.836Z,17.80
2018-08-17T05:24:05.841Z,17.50
2018-08-17T05:25:05.854Z,17.50
2018-08-17T05:26:05.807Z,16.80
2018-08-17T05:27:05.875Z,16.60
2018-08-17T05:28:05.818Z,16.00
2018-08-17T05:29:05.802Z,16.30
2018-08-17T05:30:05.762Z,15.70
2018-08-17T05:31:05.748Z,15.70
2018-08-17T05:32:05.739Z,15.90
2018-08-17T05:33:05.735Z,16.40
2018-08-17T05:34:05.766Z,14.90
2018-08-17T05:35:05.758Z,14.50
2018-08-17T05:36:05.777Z,14.70
2018-08-17T05:37:05.763Z,14.90
2018-08-17T05:38:05.711Z,13.70
2018-08-17T05:39:05.785Z,14.40
2018-08-17T05:40:05.686Z,14.20
2018-08-17T05:41:05.656Z,13.90
2018-08-17T05:42:05.668Z,14.50
2018-08-17T05:43:05.659Z,14.60
2018-08-17T05:44:05.687Z,13.90
2018-08-17T05:45:05.626Z,12.30
2018-08-17T05:46:05.835Z,11.70
2018-08-17T05:47:05.621Z,11.20
2018-08-17T05:48:05.625Z,11.30
2018-08-17T05:49:05.643Z,11.50
2018-08-17T05:50:05.638Z,10.70
2018-08-17T05:51:05.586Z,11.00
2018-08-17T05:52:05.562Z,11.40
2018-08-17T05:53:05.666Z,10.90
2018-08-17T05:54:05.586Z,10.30
2018-08-17T05:55:05.491Z,11.30
2018-08-17T05:56:05.492Z,10.90
2018-08-17T05:57:05.471Z,11.30
2018-08-17T05:58:05.483Z,11.00
2018-08-17T05:59:05.574Z,11.00
2018-08-17T06:00:05.467Z,10.60
2018-08-17T06:01:05.428Z,10.60
2018-08-17T06:02:05.475Z,10.40
2018-08-17T06:03:05.407Z,11.10
2018-08-17T06:04:05.451Z,10.90
2018-08-17T06:05:05.381Z,11.30
2018-08-17T06:06:05.400Z,11.60
2018-08-17T06:07:05.360Z,10.80
2018-08-17T06:08:05.349Z,11.50
2018-08-17T06:09:05.379Z,11.40
2018-08-17T06:10:05.328Z,11.50
2018-08-17T06:11:05.427Z,11.20
2018-08-17T06:12:05.329Z,11.40
2018-08-17T06:13:05.323Z,11.30
2018-08-17T06:14:05.312Z,12.10
2018-08-17T06:15:05.275Z,12.20
2018-08-17T06:16:05.268Z,12.10
2018-08-17T06:17:05.309Z,12.70
2018-08-17T06:18:05.243Z,11.30
2018-08-17T06:19:05.380Z,11.20
2018-08-17T06:20:05.292Z,11.90
2018-08-17T06:21:05.342Z,11.90
2018-08-17T06:22:05.262Z,10.90
2018-08-17T06:23:05.194Z,11.50
2018-08-17T06:24:05.198Z,11.50
2018-08-17T06:25:05.227Z,10.80
2018-08-17T06:26:05.157Z,11.30
2018-08-17T06:27:05.140Z,11.30
2018-08-17T06:28:05.130Z,11.30
2018-08-17T06:29:05.168Z,10.80
2018-08-17T06:30:05.191Z,11.40
2018-08-17T06:31:05.155Z,10.40
2018-08-17T06:32:05.138Z,11.40
2018-08-17T06:33:05.141Z,10.90
2018-08-17T06:34:05.135Z,10.20
2018-08-17T06:35:05.228Z,10.80
2018-08-17T06:36:05.375Z,10.20
2018-08-17T06:37:05.138Z,10.30
2018-08-17T06:38:05.087Z,10.70
2018-08-17T06:39:05.077Z,10.20
2018-08-17T06:40:05.001Z,10.30
2018-08-17T06:41:04.988Z,9.70
2018-08-17T06:42:05.017Z,9.50
2018-08-17T06:43:04.969Z,9.40
2018-08-17T06:44:04.993Z,9.30
2018-08-17T06:45:04.937Z,8.80
2018-08-17T06:46:05.013Z,8.90
2018-08-17T06:47:04.941Z,9.20
2018-08-17T06:48:04.986Z,8.70
2018-08-17T06:49:05.650Z,8.60
2018-08-17T06:50:04.933Z,8.50
2018-08-17T06:51:04.940Z,8.40
2018-08-17T06:52:04.892Z,8.30
2018-08-17T06:53:04.905Z,8.00
2018-08-17T06:54:04.883Z,8.40
2018-08-17T06:55:05.056Z,8.40
2018-08-17T06:56:04.857Z,7.80
2018-08-17T06:57:04.868Z,8.10
2018-08-17T06:58:04.815Z,8.00
2018-08-17T06:59:04.884Z,8.00
2018-08-17T07:00:04.856Z,8.20
2018-08-17T07:01:04.785Z,8.20
2018-08-17T07:02:04.820Z,8.40
2018-08-17T07:03:04.768Z,8.50
2018-08-17T07:04:04.753Z,8.20
2018-08-17T07:05:04.741Z,9.10
2018-08-17T07:06:04.736Z,11.70
2018-08-17T07:07:04.724Z,12.30
2018-08-17T07:08:04.693Z,13.20
2018-08-17T07:09:04.791Z,12.30
2018-08-17T07:10:04.671Z,14.30
2018-08-17T07:11:04.690Z,13.70
2018-08-17T07:12:04.657Z,15.70
2018-08-17T07:13:04.658Z,28.30
2018-08-17T07:14:04.680Z,38.90
2018-08-17T07:15:04.614Z,25.00
2018-08-17T07:16:04.603Z,30.40
2018-08-17T07:17:04.595Z,26.10
2018-08-17T07:18:04.589Z,27.00
2018-08-17T07:19:04.594Z,26.70
2018-08-17T07:20:04.568Z,25.70
2018-08-17T07:21:04.549Z,24.00
2018-08-17T07:22:04.586Z,23.90
2018-08-17T07:23:04.531Z,21.30
2018-08-17T07:24:04.536Z,22.70
2018-08-17T07:25:04.521Z,23.30
2018-08-17T07:26:04.533Z,19.80
2018-08-17T07:27:04.493Z,26.70
2018-08-17T07:28:04.512Z,25.80
2018-08-17T07:29:04.517Z,27.30
2018-08-17T07:30:04.452Z,24.20
2018-08-17T07:31:04.442Z,25.20
2018-08-17T07:32:04.429Z,25.90
2018-08-17T07:33:04.421Z,28.50
2018-08-17T07:34:04.423Z,27.60
2018-08-17T07:35:04.400Z,24.60
2018-08-17T07:36:04.393Z,24.30
2018-08-17T07:37:04.376Z,28.30
2018-08-17T07:38:04.359Z,22.40
2018-08-17T07:39:04.369Z,21.50
2018-08-17T07:40:06.098Z,22.80
2018-08-17T07:41:04.327Z,23.80
2018-08-17T07:42:04.334Z,20.60
2018-08-17T07:43:04.347Z,22.50
2018-08-17T07:44:04.346Z,23.90
2018-08-17T07:45:04.289Z,22.80
2018-08-17T07:46:09.171Z,23.90
2018-08-17T07:47:04.265Z,25.80
2018-08-17T07:48:06.306Z,25.00
2018-08-17T07:49:04.729Z,25.50
2018-08-17T07:50:06.286Z,21.00
2018-08-17T07:51:04.225Z,23.30
2018-08-17T07:52:04.209Z,25.70
2018-08-17T07:53:04.211Z,22.70
2018-08-17T07:54:04.213Z,27.40
2018-08-17T07:55:19.098Z,25.00
2018-08-17T07:56:04.236Z,25.90
2018-08-17T07:57:06.616Z,23.90
2018-08-17T07:58:04.182Z,21.70
2018-08-17T07:59:04.250Z,24.80
2018-08-17T08:00:05.116Z,23.70
2018-08-17T08:01:04.109Z,20.50
2018-08-17T08:02:05.115Z,24.70
2018-08-17T08:03:04.519Z,21.60
2018-08-17T08:04:05.115Z,26.90
2018-08-17T08:05:05.727Z,28.80
2018-08-17T08:06:04.596Z,25.70
2018-08-17T08:07:06.894Z,27.40
2018-08-17T08:08:05.481Z,24.50
2018-08-17T08:09:04.277Z,23.50
2018-08-17T08:10:04.196Z,26.90
2018-08-17T08:11:04.159Z,26.90
2018-08-17T08:12:04.230Z,20.10
2018-08-17T08:13:04.020Z,24.30
2018-08-17T08:14:04.041Z,26.20
2018-08-17T08:15:03.993Z,25.00
2018-08-17T08:16:06.155Z,23.20
2018-08-17T08:17:03.998Z,20.80
2018-08-17T08:18:03.986Z,21.40
2018-08-17T08:19:03.932Z,21.90
2018-08-17T08:20:03.928Z,22.40
2018-08-17T08:21:04.064Z,22.10
2018-08-17T08:22:03.981Z,20.50
2018-08-17T08:23:03.883Z,21.90
2018-08-17T08:24:03.873Z,22.40
2018-08-17T08:25:03.908Z,22.00
2018-08-17T08:26:04.008Z,28.00
2018-08-17T08:27:04.644Z,22.40
2018-08-17T08:28:04.776Z,19.70
2018-08-17T08:29:03.817Z,18.80
2018-08-17T08:30:03.859Z,21.50
2018-08-17T08:31:03.938Z,24.30
2018-08-17T08:32:03.895Z,21.40
2018-08-17T08:33:03.788Z,21.70
2018-08-17T08:34:04.717Z,27.10
2018-08-17T08:35:05.288Z,23.40
2018-08-17T08:36:03.740Z,20.50
2018-08-17T08:37:03.774Z,18.30
2018-08-17T08:38:03.709Z,27.00
2018-08-17T08:39:03.710Z,19.20
2018-08-17T08:40:03.728Z,19.10
2018-08-17T08:41:03.680Z,19.60
2018-08-17T08:42:04.875Z,22.00
2018-08-17T08:43:03.665Z,20.00
2018-08-17T08:44:03.813Z,20.00
2018-08-17T08:45:04.303Z,18.30
2018-08-17T08:46:03.772Z,17.50
2018-08-17T08:47:03.727Z,19.20
2018-08-17T08:48:03.688Z,24.10
2018-08-17T08:49:03.600Z,20.40
2018-08-17T08:50:04.749Z,19.30
2018-08-17T08:51:03.627Z,18.90
2018-08-17T08:52:03.611Z,16.90
2018-08-17T08:53:03.662Z,23.50
2018-08-17T08:54:03.555Z,19.20
2018-08-17T08:55:03.607Z,18.90
2018-08-17T08:56:03.830Z,15.70
2018-08-17T08:57:03.655Z,23.40
2018-08-17T08:58:03.729Z,16.40
2018-08-17T08:59:03.544Z,18.80
2018-08-17T09:00:04.054Z,17.40
2018-08-17T09:01:03.471Z,16.30
2018-08-17T09:02:03.445Z,16.70
2018-08-17T09:03:03.457Z,17.70
2018-08-17T09:04:03.456Z,19.10
2018-08-17T09:05:03.440Z,17.80
2018-08-17T09:06:04.073Z,15.10
2018-08-17T09:07:03.491Z,16.20
2018-08-17T09:08:03.395Z,16.30
2018-08-17T09:09:03.402Z,14.60
2018-08-17T09:10:03.419Z,15.80
2018-08-17T09:11:03.371Z,19.40
2018-08-17T09:12:03.345Z,15.40
2018-08-17T09:13:03.439Z,17.30
2018-08-17T09:14:03.318Z,16.00
2018-08-17T09:15:03.826Z,13.60
2018-08-17T09:16:03.319Z,13.90
2018-08-17T09:17:03.338Z,14.70
2018-08-17T09:18:03.323Z,14.40
2018-08-17T09:19:03.458Z,14.80
2018-08-17T09:20:03.302Z,13.10
2018-08-17T09:21:04.116Z,13.40
2018-08-17T09:22:03.257Z,12.00
2018-08-17T09:23:03.238Z,13.30
2018-08-17T09:24:04.732Z,12.30
2018-08-17T09:25:05.445Z,12.50
2018-08-17T09:26:03.320Z,12.40
2018-08-17T09:27:03.218Z,12.50
2018-08-17T09:28:03.292Z,12.70
2018-08-17T09:29:04.067Z,11.20
2018-08-17T09:30:03.706Z,12.30
2018-08-17T09:31:03.149Z,11.90
2018-08-17T09:32:03.154Z,12.10
2018-08-17T09:33:03.177Z,12.00
2018-08-17T09:34:03.257Z,11.80
2018-08-17T09:35:03.283Z,11.80
2018-08-17T09:36:03.199Z,12.20
2018-08-17T09:37:03.070Z,12.70
2018-08-17T09:38:03.075Z,12.70
2018-08-17T09:39:03.055Z,12.00
2018-08-17T09:40:03.706Z,11.60
2018-08-17T09:41:04.058Z,10.80
2018-08-17T09:42:03.129Z,11.40
2018-08-17T09:43:03.132Z,11.00
2018-08-17T09:44:03.196Z,13.00
2018-08-17T09:45:03.635Z,12.20
2018-08-17T09:46:03.006Z,12.00
2018-08-17T09:47:03.884Z,11.00
2018-08-17T09:48:03.041Z,11.60
2018-08-17T09:49:02.940Z,11.60
2018-08-17T09:50:03.713Z,11.30
2018-08-17T09:51:03.052Z,10.30
2018-08-17T09:52:02.957Z,10.10
2018-08-17T09:53:02.934Z,10.20
2018-08-17T09:54:02.888Z,10.90
2018-08-17T09:55:03.526Z,11.30
2018-08-17T09:56:03.502Z,9.60
2018-08-17T09:57:02.861Z,10.00
2018-08-17T09:58:02.857Z,10.70
2018-08-17T09:59:02.870Z,9.10
2018-08-17T10:00:02.874Z,10.10
2018-08-17T10:01:02.839Z,8.80
2018-08-17T10:02:02.819Z,11.20
2018-08-17T10:03:02.819Z,10.60
2018-08-17T10:04:03.776Z,11.20
2018-08-17T10:05:02.940Z,12.80
2018-08-17T10:06:02.820Z,13.00
2018-08-17T10:07:02.813Z,12.70
2018-08-17T10:08:03.725Z,14.10
2018-08-17T10:09:02.810Z,13.00
2018-08-17T10:10:02.768Z,15.00
2018-08-17T10:11:02.715Z,15.80
2018-08-17T10:12:02.874Z,15.70
2018-08-17T10:13:02.721Z,15.60
2018-08-17T10:14:02.833Z,13.90
2018-08-17T10:15:03.026Z,15.00
2018-08-17T10:16:02.661Z,15.30
2018-08-17T10:17:02.656Z,15.50
2018-08-17T10:18:02.676Z,16.70
2018-08-17T10:19:02.968Z,15.70
2018-08-17T10:20:02.909Z,16.00
2018-08-17T10:21:03.336Z,17.00
2018-08-17T10:22:04.013Z,17.30
2018-08-17T10:23:02.672Z,17.50
2018-08-17T10:24:02.695Z,16.90
2018-08-17T10:25:02.784Z,16.90
2018-08-17T10:26:02.601Z,18.30
2018-08-17T10:27:02.671Z,20.10
2018-08-17T10:28:02.816Z,17.70
2018-08-17T10:29:02.564Z,18.80
2018-08-17T10:30:02.560Z,18.50
2018-08-17T10:31:02.697Z,17.90
2018-08-17T10:32:02.874Z,19.10
2018-08-17T10:33:02.751Z,19.40
2018-08-17T10:34:02.668Z,21.10
2018-08-17T10:35:02.471Z,19.80
2018-08-17T10:36:02.630Z,20.00
2018-08-17T10:37:03.386Z,20.90
2018-08-17T10:38:02.424Z,20.60
2018-08-17T10:39:02.467Z,19.80
2018-08-17T10:40:02.493Z,21.20
2018-08-17T10:41:02.562Z,21.40
2018-08-17T10:42:03.232Z,22.10
2018-08-17T10:43:03.427Z,23.00
2018-08-17T10:44:03.323Z,20.40
2018-08-17T10:45:03.079Z,21.80
2018-08-17T10:46:02.787Z,19.40
2018-08-17T10:47:02.361Z,21.60
2018-08-17T10:48:02.369Z,19.70
2018-08-17T10:49:02.587Z,19.70
2018-08-17T10:50:02.309Z,20.10
2018-08-17T10:51:02.757Z,19.40
2018-08-17T10:52:02.444Z,18.20
2018-08-17T10:53:02.404Z,21.00
2018-08-17T10:54:02.578Z,19.50
2018-08-17T10:55:02.416Z,21.00
2018-08-17T10:56:11.129Z,21.40
2018-08-17T10:57:02.256Z,20.60
2018-08-17T10:58:02.460Z,22.10
2018-08-17T10:59:02.491Z,22.30
2018-08-17T11:00:03.253Z,22.00
2018-08-17T11:01:02.309Z,21.10
2018-08-17T11:02:02.189Z,22.70
2018-08-17T11:03:02.548Z,21.50
2018-08-17T11:04:02.196Z,21.30
2018-08-17T11:05:02.211Z,20.20
2018-08-17T11:06:10.155Z,21.00
2018-08-17T11:07:03.491Z,22.20
2018-08-17T11:08:02.795Z,20.70
2018-08-17T11:09:02.485Z,20.90
2018-08-17T11:10:02.134Z,20.90
2018-08-17T11:11:04.554Z,21.10
2018-08-17T11:12:02.380Z,20.80
2018-08-17T11:13:02.184Z,20.10
2018-08-17T11:14:02.940Z,20.70
2018-08-17T11:15:02.067Z,23.20
2018-08-17T11:16:03.031Z,21.90
2018-08-17T11:17:02.412Z,21.20
2018-08-17T11:18:02.639Z,21.50
2018-08-17T11:19:02.996Z,22.40
2018-08-17T11:20:03.945Z,21.70
2018-08-17T11:21:02.352Z,22.50
2018-08-17T11:22:02.526Z,21.20
2018-08-17T11:23:05.348Z,22.80
2018-08-17T11:24:02.067Z,19.80
2018-08-17T11:25:01.931Z,21.70
2018-08-17T11:26:01.949Z,20.00
2018-08-17T11:27:01.915Z,20.50
2018-08-17T11:28:02.033Z,19.30
2018-08-17T11:29:02.031Z,21.70
2018-08-17T11:30:01.894Z,19.20
2018-08-17T11:31:01.893Z,18.40
2018-08-17T11:32:03.150Z,17.90
2018-08-17T11:33:01.868Z,18.90
2018-08-17T11:34:01.864Z,18.20
2018-08-17T11:35:02.732Z,19.00
2018-08-17T11:36:01.886Z,17.80
2018-08-17T11:37:01.846Z,17.20
2018-08-17T11:38:01.795Z,17.30
2018-08-17T11:39:01.829Z,16.80
2018-08-17T11:40:01.822Z,15.60
2018-08-17T11:41:01.797Z,15.50
2018-08-17T11:42:01.739Z,16.50
2018-08-17T11:43:01.753Z,16.60
2018-08-17T11:44:01.732Z,15.80
2018-08-17T11:45:01.876Z,15.80
2018-08-17T11:46:01.742Z,15.10
2018-08-17T11:47:01.692Z,14.80
2018-08-17T11:48:01.707Z,13.60
2018-08-17T11:49:01.693Z,14.60
2018-08-17T11:50:01.687Z,14.60
2018-08-17T11:51:01.749Z,15.60
2018-08-17T11:52:01.642Z,14.60
2018-08-17T11:53:01.625Z,14.20
2018-08-17T11:54:01.786Z,13.90
2018-08-17T11:55:01.794Z,13.40
2018-08-17T11:56:01.607Z,13.50
2018-08-17T11:57:01.605Z,14.50
2018-08-17T11:58:02.134Z,15.20
2018-08-17T11:59:02.121Z,15.70
2018-08-17T12:00:01.609Z,14.70
2018-08-17T12:01:01.715Z,14.80
2018-08-17T12:02:01.651Z,15.10
2018-08-17T12:03:01.539Z,13.40
2018-08-17T12:04:01.595Z,13.20
2018-08-17T12:05:01.574Z,13.70
2018-08-17T12:06:01.577Z,13.20
2018-08-17T12:07:01.496Z,13.00
2018-08-17T12:08:01.482Z,13.20
2018-08-17T12:09:01.442Z,13.40
2018-08-17T12:10:01.441Z,13.10
2018-08-17T12:11:01.485Z,13.10
2018-08-17T12:12:01.437Z,12.30
2018-08-17T12:13:01.492Z,11.70
2018-08-17T12:14:01.387Z,12.20
2018-08-17T12:15:01.373Z,11.40
2018-08-17T12:16:01.452Z,10.30
2018-08-17T12:17:01.374Z,10.60
2018-08-17T12:18:01.365Z,10.40
2018-08-17T12:19:01.345Z,10.10
2018-08-17T12:20:01.335Z,10.50
2018-08-17T12:21:01.314Z,10.10
2018-08-17T12:22:01.399Z,9.50
2018-08-17T12:23:01.286Z,9.90
2018-08-17T12:24:01.311Z,9.20
2018-08-17T12:25:01.302Z,9.80
2018-08-17T12:26:01.276Z,9.90
2018-08-17T12:27:01.292Z,10.20
2018-08-17T12:28:01.231Z,9.90
2018-08-17T12:29:01.221Z,10.20
2018-08-17T12:30:01.241Z,10.50
2018-08-17T12:31:01.215Z,10.20
2018-08-17T12:32:01.257Z,10.50
2018-08-17T12:33:01.182Z,11.00
2018-08-17T12:34:01.171Z,11.70
2018-08-17T12:35:01.159Z,12.40
2018-08-17T12:36:01.214Z,13.50
2018-08-17T12:37:01.195Z,14.20
2018-08-17T12:38:01.139Z,14.00
2018-08-17T12:39:01.166Z,15.70
2018-08-17T12:40:01.176Z,15.20
2018-08-17T12:41:01.105Z,16.40
2018-08-17T12:42:01.136Z,16.00
2018-08-17T12:43:01.073Z,16.20
2018-08-17T12:44:01.066Z,15.50
2018-08-17T12:45:01.274Z,15.60
2018-08-17T12:46:01.067Z,15.50
2018-08-17T12:47:01.070Z,15.60
2018-08-17T12:48:01.019Z,14.30
2018-08-17T12:49:01.692Z,14.80
2018-08-17T12:50:00.996Z,15.00
2018-08-17T12:51:00.989Z,15.00
2018-08-17T12:52:01.209Z,14.90
2018-08-17T12:53:00.987Z,13.90